Station Historical Data
Daily Summary for December 4, 2017 Units:  Both    English   Metric
« Previous Day
Next Day »
Daily Weekly Monthly Yearly Custom
  High: Low: Average:
Temperature: 52.5 °F /  11.4 °C 28.7 °F /  -1.8 °C 42.3 °F /  5.7 °C
Dew Point: 36.8 °F /  2.7 °C 26.7 °F /  -2.9 °C 32 °F /  0 °C
Humidity: 93% 49% 70%
Wind Speed: 11.0mph /  17.7km/h - 2.2mph /  3.5km/h
Wind Gust: 17.0mph /  27.4km/h - -
Wind- - SSE
Pressure: 30.33 in /  1027 hPa 29.91 in /  1012.8 hPa -
Precipitation: 0.00 in /  0 mm    
Historical Graphs
 
 
Tabular Data for December 4, 2017
Time Temperature Dew Point Pressure Wind Wind Speed Wind Gust Humidity Rainfall Rate (Hourly)
00:04 30.0 °F /  -1.1 °C 27.7 °F /  -2.4 °C 30.28in /  1025.3hPa Calm     91% 0.00in /  0mm
00:09 29.9 °F /  -1.2 °C 27.6 °F /  -2.4 °C 30.28in /  1025.3hPa Calm     91% 0.00in /  0mm
00:14 29.8 °F /  -1.2 °C 27.5 °F /  -2.5 °C 30.29in /  1025.6hPa Calm     91% 0.00in /  0mm
00:19 29.7 °F /  -1.3 °C 27.4 °F /  -2.6 °C 30.29in /  1025.6hPa Calm     91% 0.00in /  0mm
00:24 30.0 °F /  -1.1 °C 27.7 °F /  -2.4 °C 30.29in /  1025.6hPa Calm     91% 0.00in /  0mm
00:29 30.0 °F /  -1.1 °C 27.7 °F /  -2.4 °C 30.29in /  1025.6hPa Calm     91% 0.00in /  0mm
00:39 30.3 °F /  -0.9 °C 28.0 °F /  -2.2 °C 30.29in /  1025.6hPa Calm     91% 0.00in /  0mm
00:44 30.8 °F /  -0.7 °C 28.5 °F /  -1.9 °C 30.28in /  1025.3hPa Calm     91% 0.00in /  0mm
00:49 30.6 °F /  -0.8 °C 28.3 °F /  -2.1 °C 30.28in /  1025.3hPa Calm     91% 0.00in /  0mm
00:54 30.4 °F /  -0.9 °C 28.1 °F /  -2.2 °C 30.28in /  1025.3hPa Calm     91% 0.00in /  0mm
00:59 30.1 °F /  -1.1 °C 27.8 °F /  -2.3 °C 30.28in /  1025.3hPa Calm     91% 0.00in /  0mm
01:04 29.9 °F /  -1.2 °C 27.6 °F /  -2.4 °C 30.28in /  1025.3hPa Calm     91% 0.00in /  0mm
01:09 29.7 °F /  -1.3 °C 27.4 °F /  -2.6 °C 30.28in /  1025.3hPa Calm     91% 0.00in /  0mm
01:14 29.6 °F /  -1.3 °C 27.3 °F /  -2.6 °C 30.28in /  1025.3hPa Calm     91% 0.00in /  0mm
01:19 29.2 °F /  -1.6 °C 26.9 °F /  -2.8 °C 30.28in /  1025.3hPa Calm     91% 0.00in /  0mm
01:24 29.3 °F /  -1.5 °C 27.0 °F /  -2.8 °C 30.28in /  1025.3hPa Calm     91% 0.00in /  0mm
01:29 29.2 °F /  -1.6 °C 26.9 °F /  -2.8 °C 30.28in /  1025.3hPa Calm     91% 0.00in /  0mm
01:34 29.1 °F /  -1.6 °C 26.8 °F /  -2.9 °C 30.28in /  1025.3hPa Calm     91% 0.00in /  0mm
01:39 29.0 °F /  -1.7 °C 26.7 °F /  -2.9 °C 30.28in /  1025.3hPa Calm     91% 0.00in /  0mm
01:44 29.0 °F /  -1.7 °C 27.0 °F /  -2.8 °C 30.28in /  1025.3hPa Calm     92% 0.00in /  0mm
01:49 29.3 °F /  -1.5 °C 27.3 °F /  -2.6 °C 30.28in /  1025.3hPa Calm     92% 0.00in /  0mm
01:54 29.6 °F /  -1.3 °C 27.6 °F /  -2.4 °C 30.28in /  1025.3hPa Calm     92% 0.00in /  0mm
01:59 29.7 °F /  -1.3 °C 27.4 °F /  -2.6 °C 30.28in /  1025.3hPa Calm     91% 0.00in /  0mm
02:04 29.7 °F /  -1.3 °C 27.7 °F /  -2.4 °C 30.28in /  1025.3hPa Calm     92% 0.00in /  0mm
02:09 29.8 °F /  -1.2 °C 27.8 °F /  -2.3 °C 30.28in /  1025.3hPa Calm     92% 0.00in /  0mm
02:14 30.0 °F /  -1.1 °C 28.0 °F /  -2.2 °C 30.28in /  1025.3hPa Calm     92% 0.00in /  0mm
02:19 29.9 °F /  -1.2 °C 27.9 °F /  -2.3 °C 30.28in /  1025.3hPa Calm     92% 0.00in /  0mm
02:24 29.9 °F /  -1.2 °C 27.9 °F /  -2.3 °C 30.28in /  1025.3hPa Calm     92% 0.00in /  0mm
02:29 29.9 °F /  -1.2 °C 27.9 °F /  -2.3 °C 30.29in /  1025.6hPa Calm     92% 0.00in /  0mm
02:34 29.9 °F /  -1.2 °C 27.9 °F /  -2.3 °C 30.29in /  1025.6hPa Calm     92% 0.00in /  0mm
02:39 29.7 °F /  -1.3 °C 27.7 °F /  -2.4 °C 30.29in /  1025.6hPa Calm     92% 0.00in /  0mm
02:44 29.3 °F /  -1.5 °C 27.0 °F /  -2.8 °C 30.30in /  1026hPa Calm     91% 0.00in /  0mm
02:49 29.0 °F /  -1.7 °C 27.0 °F /  -2.8 °C 30.30in /  1026hPa Calm     92% 0.00in /  0mm
02:54 29.0 °F /  -1.7 °C 27.0 °F /  -2.8 °C 30.30in /  1026hPa Calm     92% 0.00in /  0mm
02:59 29.2 °F /  -1.6 °C 27.2 °F /  -2.7 °C 30.30in /  1026hPa Calm     92% 0.00in /  0mm
03:04 29.7 °F /  -1.3 °C 27.7 °F /  -2.4 °C 30.30in /  1026hPa Calm     92% 0.00in /  0mm
03:09 30.1 °F /  -1.1 °C 28.1 °F /  -2.2 °C 30.30in /  1026hPa Calm     92% 0.00in /  0mm
03:14 30.0 °F /  -1.1 °C 28.0 °F /  -2.2 °C 30.30in /  1026hPa Calm     92% 0.00in /  0mm
03:19 29.8 °F /  -1.2 °C 27.8 °F /  -2.3 °C 30.29in /  1025.6hPa Calm     92% 0.00in /  0mm
03:24 30.0 °F /  -1.1 °C 28.0 °F /  -2.2 °C 30.29in /  1025.6hPa Calm     92% 0.00in /  0mm
03:29 30.3 °F /  -0.9 °C 28.3 °F /  -2.1 °C 30.29in /  1025.6hPa Calm     92% 0.00in /  0mm
03:34 30.1 °F /  -1.1 °C 28.1 °F /  -2.2 °C 30.29in /  1025.6hPa Calm     92% 0.00in /  0mm
03:39 29.7 °F /  -1.3 °C 27.7 °F /  -2.4 °C 30.30in /  1026hPa Calm     92% 0.00in /  0mm
03:44 29.3 °F /  -1.5 °C 27.3 °F /  -2.6 °C 30.30in /  1026hPa Calm     92% 0.00in /  0mm
03:49 29.1 °F /  -1.6 °C 27.1 °F /  -2.7 °C 30.30in /  1026hPa Calm     92% 0.00in /  0mm
03:54 29.1 °F /  -1.6 °C 27.1 °F /  -2.7 °C 30.30in /  1026hPa Calm     92% 0.00in /  0mm
03:59 28.8 °F /  -1.8 °C 26.8 °F /  -2.9 °C 30.30in /  1026hPa Calm     92% 0.00in /  0mm
04:04 28.7 °F /  -1.8 °C 26.7 °F /  -2.9 °C 30.30in /  1026hPa Calm     92% 0.00in /  0mm
04:09 28.8 °F /  -1.8 °C 26.8 °F /  -2.9 °C 30.30in /  1026hPa Calm     92% 0.00in /  0mm
04:14 29.1 °F /  -1.6 °C 27.1 °F /  -2.7 °C 30.30in /  1026hPa Calm     92% 0.00in /  0mm
04:19 29.1 °F /  -1.6 °C 27.1 °F /  -2.7 °C 30.31in /  1026.3hPa Calm     92% 0.00in /  0mm
04:24 28.8 °F /  -1.8 °C 26.8 °F /  -2.9 °C 30.31in /  1026.3hPa Calm     92% 0.00in /  0mm
04:29 28.7 °F /  -1.8 °C 26.7 °F /  -2.9 °C 30.31in /  1026.3hPa Calm     92% 0.00in /  0mm
04:34 29.0 °F /  -1.7 °C 27.0 °F /  -2.8 °C 30.31in /  1026.3hPa Calm     92% 0.00in /  0mm
04:39 29.3 °F /  -1.5 °C 27.3 °F /  -2.6 °C 30.31in /  1026.3hPa Calm     92% 0.00in /  0mm
04:44 29.3 °F /  -1.5 °C 27.3 °F /  -2.6 °C 30.31in /  1026.3hPa Calm     92% 0.00in /  0mm
04:49 29.2 °F /  -1.6 °C 27.2 °F /  -2.7 °C 30.31in /  1026.3hPa Calm     92% 0.00in /  0mm
04:54 29.2 °F /  -1.6 °C 27.2 °F /  -2.7 °C 30.31in /  1026.3hPa Calm     92% 0.00in /  0mm
04:59 29.5 °F /  -1.4 °C 27.5 °F /  -2.5 °C 30.31in /  1026.3hPa Calm     92% 0.00in /  0mm
05:04 29.6 °F /  -1.3 °C 27.8 °F /  -2.3 °C 30.31in /  1026.3hPa Calm     93% 0.00in /  0mm
05:09 29.7 °F /  -1.3 °C 27.7 °F /  -2.4 °C 30.31in /  1026.3hPa Calm     92% 0.00in /  0mm
05:14 29.7 °F /  -1.3 °C 27.7 °F /  -2.4 °C 30.30in /  1026hPa Calm     92% 0.00in /  0mm
05:19 29.9 °F /  -1.2 °C 28.1 °F /  -2.2 °C 30.30in /  1026hPa Calm     93% 0.00in /  0mm
05:24 29.9 °F /  -1.2 °C 27.9 °F /  -2.3 °C 30.30in /  1026hPa Calm     92% 0.00in /  0mm
05:29 30.0 °F /  -1.1 °C 28.0 °F /  -2.2 °C 30.31in /  1026.3hPa Calm     92% 0.00in /  0mm
05:34 29.7 °F /  -1.3 °C 27.7 °F /  -2.4 °C 30.31in /  1026.3hPa Calm     92% 0.00in /  0mm
05:39 29.9 °F /  -1.2 °C 28.1 °F /  -2.2 °C 30.31in /  1026.3hPa Calm     93% 0.00in /  0mm
05:49 30.4 °F /  -0.9 °C 28.6 °F /  -1.9 °C 30.30in /  1026hPa Calm     93% 0.00in /  0mm
05:54 30.5 °F /  -0.8 °C 28.7 °F /  -1.8 °C 30.30in /  1026hPa Calm     93% 0.00in /  0mm
05:59 30.7 °F /  -0.7 °C 28.9 °F /  -1.7 °C 30.30in /  1026hPa Calm     93% 0.00in /  0mm
06:04 30.8 °F /  -0.7 °C 29.0 °F /  -1.7 °C 30.30in /  1026hPa Calm     93% 0.00in /  0mm
06:09 30.7 °F /  -0.7 °C 28.7 °F /  -1.8 °C 30.30in /  1026hPa Calm     92% 0.00in /  0mm
06:14 30.8 °F /  -0.7 °C 29.0 °F /  -1.7 °C 30.31in /  1026.3hPa Calm     93% 0.00in /  0mm
06:19 30.9 °F /  -0.6 °C 28.9 °F /  -1.7 °C 30.31in /  1026.3hPa Calm     92% 0.00in /  0mm
06:24 30.7 °F /  -0.7 °C 28.7 °F /  -1.8 °C 30.31in /  1026.3hPa Calm     92% 0.00in /  0mm
06:29 30.5 °F /  -0.8 °C 28.5 °F /  -1.9 °C 30.32in /  1026.6hPa Calm     92% 0.00in /  0mm
06:34 30.7 °F /  -0.7 °C 28.9 °F /  -1.7 °C 30.32in /  1026.6hPa Calm     93% 0.00in /  0mm
06:39 31.0 °F /  -0.6 °C 29.2 °F /  -1.6 °C 30.32in /  1026.6hPa Calm     93% 0.00in /  0mm
06:44 31.0 °F /  -0.6 °C 29.2 °F /  -1.6 °C 30.32in /  1026.6hPa Calm     93% 0.00in /  0mm
06:49 31.1 °F /  -0.5 °C 29.3 °F /  -1.5 °C 30.32in /  1026.6hPa Calm     93% 0.00in /  0mm
06:54 31.2 °F /  -0.4 °C 29.4 °F /  -1.4 °C 30.33in /  1027hPa Calm     93% 0.00in /  0mm
06:59 31.0 °F /  -0.6 °C 28.9 °F /  -1.7 °C 30.33in /  1027hPa Calm     92% 0.00in /  0mm
07:04 31.1 °F /  -0.5 °C 29.3 °F /  -1.5 °C 30.33in /  1027hPa Calm     93% 0.00in /  0mm
07:09 31.5 °F /  -0.3 °C 29.7 °F /  -1.3 °C 30.32in /  1026.6hPa Calm     93% 0.00in /  0mm
07:14 31.7 °F /  -0.2 °C 29.9 °F /  -1.2 °C 30.32in /  1026.6hPa Calm     93% 0.00in /  0mm
07:19 31.8 °F /  -0.1 °C 30.0 °F /  -1.1 °C 30.32in /  1026.6hPa Calm     93% 0.00in /  0mm
07:24 31.9 °F /  -0.1 °C 30.1 °F /  -1.1 °C 30.31in /  1026.3hPa Calm     93% 0.00in /  0mm
07:29 32.0 °F /  0 °C 30.2 °F /  -1 °C 30.32in /  1026.6hPa Calm     93% 0.00in /  0mm
07:34 32.0 °F /  0 °C 30.2 °F /  -1 °C 30.32in /  1026.6hPa Calm     93% 0.00in /  0mm
07:39 32.1 °F /  0.1 °C 30.3 °F /  -0.9 °C 30.31in /  1026.3hPa Calm     93% 0.00in /  0mm
07:49 32.3 °F /  0.2 °C 30.5 °F /  -0.8 °C 30.31in /  1026.3hPa Calm   2.0mph /  3.2km/h 93% 0.00in /  0mm
07:54 32.4 °F /  0.2 °C 30.6 °F /  -0.8 °C 30.31in /  1026.3hPa ESE 1.0mph /  1.6km/h 3.0mph /  4.8km/h 93% 0.00in /  0mm
07:59 32.6 °F /  0.3 °C 30.5 °F /  -0.8 °C 30.31in /  1026.3hPa ESE 1.0mph /  1.6km/h 3.0mph /  4.8km/h 92% 0.00in /  0mm
08:04 32.7 °F /  0.4 °C 30.9 °F /  -0.6 °C 30.31in /  1026.3hPa Calm   4.0mph /  6.4km/h 93% 0.00in /  0mm
08:09 32.9 °F /  0.5 °C 31.1 °F /  -0.5 °C 30.31in /  1026.3hPa Calm     93% 0.00in /  0mm
08:14 33.1 °F /  0.6 °C 31.0 °F /  -0.6 °C 30.32in /  1026.6hPa Calm     92% 0.00in /  0mm
08:19 33.3 °F /  0.7 °C 31.2 °F /  -0.4 °C 30.31in /  1026.3hPa ESE 1.0mph /  1.6km/h 3.0mph /  4.8km/h 92% 0.00in /  0mm
08:24 33.5 °F /  0.8 °C 31.4 °F /  -0.3 °C 30.31in /  1026.3hPa Calm   2.0mph /  3.2km/h 92% 0.00in /  0mm
08:29 33.6 °F /  0.9 °C 31.5 °F /  -0.3 °C 30.31in /  1026.3hPa East 1.0mph /  1.6km/h 3.0mph /  4.8km/h 92% 0.00in /  0mm
08:34 33.8 °F /  1 °C 31.5 °F /  -0.3 °C 30.31in /  1026.3hPa ESE 1.0mph /  1.6km/h 4.0mph /  6.4km/h 91% 0.00in /  0mm
08:39 34.0 °F /  1.1 °C 31.6 °F /  -0.2 °C 30.31in /  1026.3hPa Calm   4.0mph /  6.4km/h 91% 0.00in /  0mm
08:44 34.2 °F /  1.2 °C 31.8 °F /  -0.1 °C 30.31in /  1026.3hPa Calm   3.0mph /  4.8km/h 91% 0.00in /  0mm
08:49 34.4 °F /  1.3 °C 32.0 °F /  0 °C 30.31in /  1026.3hPa Calm     91% 0.00in /  0mm
08:54 34.7 °F /  1.5 °C 32.1 °F /  0.1 °C 30.31in /  1026.3hPa Calm   1.0mph /  1.6km/h 90% 0.00in /  0mm
08:59 35.0 °F /  1.7 °C 32.4 °F /  0.2 °C 30.30in /  1026hPa Calm   2.0mph /  3.2km/h 90% 0.00in /  0mm
09:04 35.3 °F /  1.8 °C 32.4 °F /  0.2 °C 30.30in /  1026hPa East 2.0mph /  3.2km/h 3.0mph /  4.8km/h 89% 0.00in /  0mm
09:09 35.5 °F /  1.9 °C 32.6 °F /  0.3 °C 30.30in /  1026hPa Calm   3.0mph /  4.8km/h 89% 0.00in /  0mm
09:14 35.8 °F /  2.1 °C 32.6 °F /  0.3 °C 30.30in /  1026hPa Calm   3.0mph /  4.8km/h 88% 0.00in /  0mm
09:19 36.2 °F /  2.3 °C 33.0 °F /  0.6 °C 30.30in /  1026hPa Calm   3.0mph /  4.8km/h 88% 0.00in /  0mm
09:24 36.6 °F /  2.6 °C 33.1 °F /  0.6 °C 30.30in /  1026hPa SE 1.0mph /  1.6km/h 4.0mph /  6.4km/h 87% 0.00in /  0mm
09:29 36.9 °F /  2.7 °C 33.1 °F /  0.6 °C 30.30in /  1026hPa Calm   2.0mph /  3.2km/h 86% 0.00in /  0mm
09:34 37.3 °F /  2.9 °C 33.2 °F /  0.7 °C 30.30in /  1026hPa Calm   3.0mph /  4.8km/h 85% 0.00in /  0mm
09:39 37.7 °F /  3.2 °C 33.3 °F /  0.7 °C 30.30in /  1026hPa Calm   3.0mph /  4.8km/h 84% 0.00in /  0mm
09:44 38.1 °F /  3.4 °C 33.4 °F /  0.8 °C 30.30in /  1026hPa Calm   2.0mph /  3.2km/h 83% 0.00in /  0mm
09:49 38.5 °F /  3.6 °C 33.8 °F /  1 °C 30.30in /  1026hPa Calm   2.0mph /  3.2km/h 83% 0.00in /  0mm
09:54 38.8 °F /  3.8 °C 33.8 °F /  1 °C 30.30in /  1026hPa SE 1.0mph /  1.6km/h 4.0mph /  6.4km/h 82% 0.00in /  0mm
09:59 39.1 °F /  3.9 °C 34.1 °F /  1.2 °C 30.30in /  1026hPa SE 1.0mph /  1.6km/h 4.0mph /  6.4km/h 82% 0.00in /  0mm
10:04 39.3 °F /  4.1 °C 33.6 °F /  0.9 °C 30.29in /  1025.6hPa SSE 1.0mph /  1.6km/h 4.0mph /  6.4km/h 80% 0.00in /  0mm
10:09 39.7 °F /  4.3 °C 34.0 °F /  1.1 °C 30.29in /  1025.6hPa Calm   3.0mph /  4.8km/h 80% 0.00in /  0mm
10:14 40.1 °F /  4.5 °C 34.1 °F /  1.2 °C 30.29in /  1025.6hPa SE 2.0mph /  3.2km/h 3.0mph /  4.8km/h 79% 0.00in /  0mm
10:19 40.4 °F /  4.7 °C 34.1 °F /  1.2 °C 30.28in /  1025.3hPa Calm   4.0mph /  6.4km/h 78% 0.00in /  0mm
10:24 40.9 °F /  4.9 °C 34.6 °F /  1.4 °C 30.28in /  1025.3hPa SE 1.0mph /  1.6km/h 3.0mph /  4.8km/h 78% 0.00in /  0mm
10:29 41.2 °F /  5.1 °C 34.5 °F /  1.4 °C 30.28in /  1025.3hPa Calm   2.0mph /  3.2km/h 77% 0.00in /  0mm
10:34 41.6 °F /  5.3 °C 34.9 °F /  1.6 °C 30.28in /  1025.3hPa SE 1.0mph /  1.6km/h 3.0mph /  4.8km/h 77% 0.00in /  0mm
10:39 42.0 °F /  5.6 °C 35.0 °F /  1.7 °C 30.28in /  1025.3hPa Calm   3.0mph /  4.8km/h 76% 0.00in /  0mm
10:44 42.3 °F /  5.7 °C 34.6 °F /  1.4 °C 30.28in /  1025.3hPa Calm   2.0mph /  3.2km/h 74% 0.00in /  0mm
10:49 42.7 °F /  5.9 °C 35.0 °F /  1.7 °C 30.27in /  1024.9hPa Calm     74% 0.00in /  0mm
10:54 43.0 °F /  6.1 °C 35.3 °F /  1.8 °C 30.27in /  1024.9hPa Calm     74% 0.00in /  0mm
10:59 43.4 °F /  6.3 °C 35.7 °F /  2.1 °C 30.27in /  1024.9hPa Calm   4.0mph /  6.4km/h 74% 0.00in /  0mm
11:04 44.1 °F /  6.7 °C 36.0 °F /  2.2 °C 30.26in /  1024.6hPa Calm   4.0mph /  6.4km/h 73% 0.00in /  0mm
11:09 44.9 °F /  7.2 °C 36.4 °F /  2.4 °C 30.25in /  1024.3hPa SE 1.0mph /  1.6km/h 5.0mph /  8km/h 72% 0.00in /  0mm
11:14 45.6 °F /  7.6 °C 36.7 °F /  2.6 °C 30.25in /  1024.3hPa SE 1.0mph /  1.6km/h 5.0mph /  8km/h 71% 0.00in /  0mm
11:19 45.9 °F /  7.7 °C 36.7 °F /  2.6 °C 30.25in /  1024.3hPa ESE 2.0mph /  3.2km/h 4.0mph /  6.4km/h 70% 0.00in /  0mm
11:24 46.2 °F /  7.9 °C 36.2 °F /  2.3 °C 30.24in /  1023.9hPa SSE 1.0mph /  1.6km/h 5.0mph /  8km/h 68% 0.00in /  0mm
11:29 47.2 °F /  8.4 °C 36.8 °F /  2.7 °C 30.24in /  1023.9hPa SSE 1.0mph /  1.6km/h 4.0mph /  6.4km/h 67% 0.00in /  0mm
11:34 47.7 °F /  8.7 °C 36.5 °F /  2.5 °C 30.23in /  1023.6hPa SSE 2.0mph /  3.2km/h 5.0mph /  8km/h 65% 0.00in /  0mm
11:39 48.1 °F /  8.9 °C 36.1 °F /  2.3 °C 30.23in /  1023.6hPa SE 2.0mph /  3.2km/h 8.0mph /  12.9km/h 63% 0.00in /  0mm
11:44 48.1 °F /  8.9 °C 35.7 °F /  2.1 °C 30.22in /  1023.2hPa SSE 3.0mph /  4.8km/h 8.0mph /  12.9km/h 62% 0.00in /  0mm
11:49 48.0 °F /  8.9 °C 35.2 °F /  1.8 °C 30.21in /  1022.9hPa SSE 4.0mph /  6.4km/h 9.0mph /  14.5km/h 61% 0.00in /  0mm
11:54 48.2 °F /  9 °C 35.0 °F /  1.7 °C 30.20in /  1022.6hPa SE 4.0mph /  6.4km/h 9.0mph /  14.5km/h 60% 0.00in /  0mm
11:59 48.5 °F /  9.2 °C 35.2 °F /  1.8 °C 30.21in /  1022.9hPa SSE 4.0mph /  6.4km/h 8.0mph /  12.9km/h 60% 0.00in /  0mm
12:04 49.0 °F /  9.4 °C 34.4 °F /  1.3 °C 30.21in /  1022.9hPa SSE 1.0mph /  1.6km/h 10.0mph /  16.1km/h 57% 0.00in /  0mm
12:09 49.4 °F /  9.7 °C 34.8 °F /  1.6 °C 30.21in /  1022.9hPa South 3.0mph /  4.8km/h 6.0mph /  9.7km/h 57% 0.00in /  0mm
12:14 49.6 °F /  9.8 °C 34.5 °F /  1.4 °C 30.21in /  1022.9hPa South 4.0mph /  6.4km/h 7.0mph /  11.3km/h 56% 0.00in /  0mm
12:19 49.9 °F /  9.9 °C 35.7 °F /  2.1 °C 30.21in /  1022.9hPa South 2.0mph /  3.2km/h 9.0mph /  14.5km/h 58% 0.00in /  0mm
12:24 50.6 °F /  10.3 °C 35.0 °F /  1.7 °C 30.21in /  1022.9hPa SSE 3.0mph /  4.8km/h 8.0mph /  12.9km/h 55% 0.00in /  0mm
12:29 50.6 °F /  10.3 °C 34.6 °F /  1.4 °C 30.20in /  1022.6hPa SSE 4.0mph /  6.4km/h 8.0mph /  12.9km/h 54% 0.00in /  0mm
12:34 50.4 °F /  10.2 °C 34.8 °F /  1.6 °C 30.20in /  1022.6hPa SSE 4.0mph /  6.4km/h 8.0mph /  12.9km/h 55% 0.00in /  0mm
12:39 50.1 °F /  10.1 °C 34.1 °F /  1.2 °C 30.19in /  1022.2hPa SSE 4.0mph /  6.4km/h 9.0mph /  14.5km/h 54% 0.00in /  0mm
12:44 49.9 °F /  9.9 °C 33.9 °F /  1.1 °C 30.19in /  1022.2hPa SSE 5.0mph /  8km/h 9.0mph /  14.5km/h 54% 0.00in /  0mm
12:49 49.9 °F /  9.9 °C 34.8 °F /  1.6 °C 30.18in /  1021.9hPa SSE 4.0mph /  6.4km/h 9.0mph /  14.5km/h 56% 0.00in /  0mm
12:54 49.8 °F /  9.9 °C 34.7 °F /  1.5 °C 30.18in /  1021.9hPa SSE 3.0mph /  4.8km/h 7.0mph /  11.3km/h 56% 0.00in /  0mm
12:59 49.8 °F /  9.9 °C 34.3 °F /  1.3 °C 30.17in /  1021.6hPa Calm   7.0mph /  11.3km/h 55% 0.00in /  0mm
13:04 50.0 °F /  10 °C 34.5 °F /  1.4 °C 30.17in /  1021.6hPa SSE 3.0mph /  4.8km/h 7.0mph /  11.3km/h 55% 0.00in /  0mm
13:09 50.0 °F /  10 °C 34.5 °F /  1.4 °C 30.17in /  1021.6hPa SSE 3.0mph /  4.8km/h 10.0mph /  16.1km/h 55% 0.00in /  0mm
13:14 50.3 °F /  10.2 °C 34.3 °F /  1.3 °C 30.16in /  1021.2hPa SE 5.0mph /  8km/h 7.0mph /  11.3km/h 54% 0.00in /  0mm
13:19 50.5 °F /  10.3 °C 34.5 °F /  1.4 °C 30.16in /  1021.2hPa SE 3.0mph /  4.8km/h 7.0mph /  11.3km/h 54% 0.00in /  0mm
13:24 50.5 °F /  10.3 °C 34.5 °F /  1.4 °C 30.16in /  1021.2hPa SE 3.0mph /  4.8km/h 7.0mph /  11.3km/h 54% 0.00in /  0mm
13:29 50.2 °F /  10.1 °C 34.2 °F /  1.2 °C 30.15in /  1020.9hPa SSE 2.0mph /  3.2km/h 7.0mph /  11.3km/h 54% 0.00in /  0mm
13:34 50.0 °F /  10 °C 34.5 °F /  1.4 °C 30.14in /  1020.5hPa East 3.0mph /  4.8km/h 6.0mph /  9.7km/h 55% 0.00in /  0mm
13:39 49.8 °F /  9.9 °C 34.3 °F /  1.3 °C 30.14in /  1020.5hPa SE 2.0mph /  3.2km/h 6.0mph /  9.7km/h 55% 0.00in /  0mm
13:44 49.8 °F /  9.9 °C 34.3 °F /  1.3 °C 30.14in /  1020.5hPa SE 2.0mph /  3.2km/h 5.0mph /  8km/h 55% 0.00in /  0mm
13:49 49.9 °F /  9.9 °C 34.4 °F /  1.3 °C 30.14in /  1020.5hPa SE 2.0mph /  3.2km/h 5.0mph /  8km/h 55% 0.00in /  0mm
13:54 50.1 °F /  10.1 °C 34.5 °F /  1.4 °C 30.13in /  1020.2hPa SE 2.0mph /  3.2km/h 4.0mph /  6.4km/h 55% 0.00in /  0mm
13:59 50.3 °F /  10.2 °C 34.3 °F /  1.3 °C 30.13in /  1020.2hPa Calm   6.0mph /  9.7km/h 54% 0.00in /  0mm
14:04 50.6 °F /  10.3 °C 34.1 °F /  1.2 °C 30.12in /  1019.9hPa SSE 3.0mph /  4.8km/h 6.0mph /  9.7km/h 53% 0.00in /  0mm
14:09 50.9 °F /  10.5 °C 34.4 °F /  1.3 °C 30.13in /  1020.2hPa SSE 3.0mph /  4.8km/h 6.0mph /  9.7km/h 53% 0.00in /  0mm
14:14 51.2 °F /  10.7 °C 33.7 °F /  0.9 °C 30.12in /  1019.9hPa SE 4.0mph /  6.4km/h 9.0mph /  14.5km/h 51% 0.00in /  0mm
14:19 51.5 °F /  10.8 °C 33.5 °F /  0.8 °C 30.12in /  1019.9hPa SSE 5.0mph /  8km/h 10.0mph /  16.1km/h 50% 0.00in /  0mm
14:24 51.4 °F /  10.8 °C 33.4 °F /  0.8 °C 30.12in /  1019.9hPa SSE 5.0mph /  8km/h 8.0mph /  12.9km/h 50% 0.00in /  0mm
14:29 51.4 °F /  10.8 °C 33.4 °F /  0.8 °C 30.12in /  1019.9hPa SSE 6.0mph /  9.7km/h 10.0mph /  16.1km/h 50% 0.00in /  0mm
14:34 51.4 °F /  10.8 °C 33.4 °F /  0.8 °C 30.12in /  1019.9hPa South 6.0mph /  9.7km/h 8.0mph /  12.9km/h 50% 0.00in /  0mm
14:39 51.4 °F /  10.8 °C 33.4 °F /  0.8 °C 30.12in /  1019.9hPa South 4.0mph /  6.4km/h 8.0mph /  12.9km/h 50% 0.00in /  0mm
14:44 51.4 °F /  10.8 °C 33.4 °F /  0.8 °C 30.11in /  1019.5hPa South 4.0mph /  6.4km/h 6.0mph /  9.7km/h 50% 0.00in /  0mm
14:49 51.5 °F /  10.8 °C 33.0 °F /  0.6 °C 30.11in /  1019.5hPa South 4.0mph /  6.4km/h 6.0mph /  9.7km/h 49% 0.00in /  0mm
14:54 51.5 °F /  10.8 °C 33.0 °F /  0.6 °C 30.11in /  1019.5hPa South 3.0mph /  4.8km/h 7.0mph /  11.3km/h 49% 0.00in /  0mm
14:59 51.5 °F /  10.8 °C 33.5 °F /  0.8 °C 30.11in /  1019.5hPa South 4.0mph /  6.4km/h 9.0mph /  14.5km/h 50% 0.00in /  0mm
15:04 51.4 °F /  10.8 °C 33.4 °F /  0.8 °C 30.11in /  1019.5hPa South 2.0mph /  3.2km/h 8.0mph /  12.9km/h 50% 0.00in /  0mm
15:09 51.4 °F /  10.8 °C 33.4 °F /  0.8 °C 30.10in /  1019.2hPa SSE 1.0mph /  1.6km/h 7.0mph /  11.3km/h 50% 0.00in /  0mm
15:14 51.3 °F /  10.7 °C 33.3 °F /  0.7 °C 30.10in /  1019.2hPa SSE 3.0mph /  4.8km/h 8.0mph /  12.9km/h 50% 0.00in /  0mm
15:19 51.3 °F /  10.7 °C 33.3 °F /  0.7 °C 30.09in /  1018.8hPa South 2.0mph /  3.2km/h 10.0mph /  16.1km/h 50% 0.00in /  0mm
15:24 51.2 °F /  10.7 °C 33.7 °F /  0.9 °C 30.09in /  1018.8hPa SSE 2.0mph /  3.2km/h 5.0mph /  8km/h 51% 0.00in /  0mm
15:29 51.2 °F /  10.7 °C 33.2 °F /  0.7 °C 30.09in /  1018.8hPa SSW 2.0mph /  3.2km/h 9.0mph /  14.5km/h 50% 0.00in /  0mm
15:34 51.2 °F /  10.7 °C 33.2 °F /  0.7 °C 30.09in /  1018.8hPa SSE 4.0mph /  6.4km/h 8.0mph /  12.9km/h 50% 0.00in /  0mm
15:39 51.2 °F /  10.7 °C 33.2 °F /  0.7 °C 30.09in /  1018.8hPa SSE 4.0mph /  6.4km/h 8.0mph /  12.9km/h 50% 0.00in /  0mm
15:44 51.2 °F /  10.7 °C 33.7 °F /  0.9 °C 30.09in /  1018.8hPa SSE 3.0mph /  4.8km/h 8.0mph /  12.9km/h 51% 0.00in /  0mm
15:49 51.2 °F /  10.7 °C 33.2 °F /  0.7 °C 30.09in /  1018.8hPa SSE 3.0mph /  4.8km/h 10.0mph /  16.1km/h 50% 0.00in /  0mm
15:54 51.2 °F /  10.7 °C 33.7 °F /  0.9 °C 30.09in /  1018.8hPa SSE 3.0mph /  4.8km/h 10.0mph /  16.1km/h 51% 0.00in /  0mm
15:59 51.1 °F /  10.6 °C 33.6 °F /  0.9 °C 30.09in /  1018.8hPa SSE 3.0mph /  4.8km/h 8.0mph /  12.9km/h 51% 0.00in /  0mm
16:04 51.2 °F /  10.7 °C 33.7 °F /  0.9 °C 30.08in /  1018.5hPa SSE 4.0mph /  6.4km/h 9.0mph /  14.5km/h 51% 0.00in /  0mm
16:09 51.2 °F /  10.7 °C 33.7 °F /  0.9 °C 30.08in /  1018.5hPa SSE 5.0mph /  8km/h 9.0mph /  14.5km/h 51% 0.00in /  0mm
16:14 51.2 °F /  10.7 °C 33.7 °F /  0.9 °C 30.08in /  1018.5hPa SSE 4.0mph /  6.4km/h 9.0mph /  14.5km/h 51% 0.00in /  0mm
16:19 51.1 °F /  10.6 °C 33.6 °F /  0.9 °C 30.08in /  1018.5hPa Calm   6.0mph /  9.7km/h 51% 0.00in /  0mm
16:24 51.0 °F /  10.6 °C 33.5 °F /  0.8 °C 30.08in /  1018.5hPa SSE 1.0mph /  1.6km/h 6.0mph /  9.7km/h 51% 0.00in /  0mm
16:29 50.9 °F /  10.5 °C 33.9 °F /  1.1 °C 30.08in /  1018.5hPa SSE 3.0mph /  4.8km/h 3.0mph /  4.8km/h 52% 0.00in /  0mm
16:34 50.9 °F /  10.5 °C 33.9 °F /  1.1 °C 30.08in /  1018.5hPa SSE 3.0mph /  4.8km/h 7.0mph /  11.3km/h 52% 0.00in /  0mm
16:39 50.9 °F /  10.5 °C 33.9 °F /  1.1 °C 30.07in /  1018.2hPa SE 1.0mph /  1.6km/h 6.0mph /  9.7km/h 52% 0.00in /  0mm
16:44 50.9 °F /  10.5 °C 33.9 °F /  1.1 °C 30.07in /  1018.2hPa SE 3.0mph /  4.8km/h 6.0mph /  9.7km/h 52% 0.00in /  0mm
16:49 50.9 °F /  10.5 °C 33.9 °F /  1.1 °C 30.07in /  1018.2hPa SSE 3.0mph /  4.8km/h 6.0mph /  9.7km/h 52% 0.00in /  0mm
16:54 50.9 °F /  10.5 °C 33.9 °F /  1.1 °C 30.08in /  1018.5hPa SSE 3.0mph /  4.8km/h 5.0mph /  8km/h 52% 0.00in /  0mm
16:59 50.8 °F /  10.4 °C 33.8 °F /  1 °C 30.07in /  1018.2hPa SSE 2.0mph /  3.2km/h 5.0mph /  8km/h 52% 0.00in /  0mm
17:04 50.7 °F /  10.4 °C 34.2 °F /  1.2 °C 30.08in /  1018.5hPa SSE 2.0mph /  3.2km/h 5.0mph /  8km/h 53% 0.00in /  0mm
17:09 50.7 °F /  10.4 °C 34.2 °F /  1.2 °C 30.08in /  1018.5hPa SSE 3.0mph /  4.8km/h 6.0mph /  9.7km/h 53% 0.00in /  0mm
17:14 50.6 °F /  10.3 °C 34.1 °F /  1.2 °C 30.07in /  1018.2hPa SSE 2.0mph /  3.2km/h 6.0mph /  9.7km/h 53% 0.00in /  0mm
17:19 50.6 °F /  10.3 °C 34.1 °F /  1.2 °C 30.07in /  1018.2hPa SSE 1.0mph /  1.6km/h 4.0mph /  6.4km/h 53% 0.00in /  0mm
17:24 50.5 °F /  10.3 °C 34.0 °F /  1.1 °C 30.08in /  1018.5hPa SSE 2.0mph /  3.2km/h 4.0mph /  6.4km/h 53% 0.00in /  0mm
17:29 50.6 °F /  10.3 °C 34.1 °F /  1.2 °C 30.08in /  1018.5hPa Calm   5.0mph /  8km/h 53% 0.00in /  0mm
17:34 50.6 °F /  10.3 °C 34.1 °F /  1.2 °C 30.07in /  1018.2hPa South 2.0mph /  3.2km/h 4.0mph /  6.4km/h 53% 0.00in /  0mm
17:39 50.6 °F /  10.3 °C 34.1 °F /  1.2 °C 30.07in /  1018.2hPa South 3.0mph /  4.8km/h 6.0mph /  9.7km/h 53% 0.00in /  0mm
17:44 50.7 °F /  10.4 °C 34.2 °F /  1.2 °C 30.07in /  1018.2hPa SSE 5.0mph /  8km/h 5.0mph /  8km/h 53% 0.00in /  0mm
17:49 50.9 °F /  10.5 °C 34.4 °F /  1.3 °C 30.07in /  1018.2hPa South 3.0mph /  4.8km/h 6.0mph /  9.7km/h 53% 0.00in /  0mm
17:54 51.0 °F /  10.6 °C 34.0 °F /  1.1 °C 30.07in /  1018.2hPa South 3.0mph /  4.8km/h 6.0mph /  9.7km/h 52% 0.00in /  0mm
17:59 51.1 °F /  10.6 °C 34.1 °F /  1.2 °C 30.07in /  1018.2hPa South 4.0mph /  6.4km/h 4.0mph /  6.4km/h 52% 0.00in /  0mm
18:04 51.2 °F /  10.7 °C 34.2 °F /  1.2 °C 30.06in /  1017.8hPa South 3.0mph /  4.8km/h 6.0mph /  9.7km/h 52% 0.00in /  0mm
18:09 51.2 °F /  10.7 °C 34.2 °F /  1.2 °C 30.06in /  1017.8hPa South 3.0mph /  4.8km/h 6.0mph /  9.7km/h 52% 0.00in /  0mm
18:14 51.2 °F /  10.7 °C 33.7 °F /  0.9 °C 30.06in /  1017.8hPa SSW 6.0mph /  9.7km/h 7.0mph /  11.3km/h 51% 0.00in /  0mm
18:19 51.3 °F /  10.7 °C 33.8 °F /  1 °C 30.06in /  1017.8hPa SSW 4.0mph /  6.4km/h 8.0mph /  12.9km/h 51% 0.00in /  0mm
18:24 51.2 °F /  10.7 °C 33.7 °F /  0.9 °C 30.06in /  1017.8hPa South 4.0mph /  6.4km/h 8.0mph /  12.9km/h 51% 0.00in /  0mm
18:29 51.3 °F /  10.7 °C 33.8 °F /  1 °C 30.05in /  1017.5hPa South 5.0mph /  8km/h 7.0mph /  11.3km/h 51% 0.00in /  0mm
18:34 51.4 °F /  10.8 °C 34.3 °F /  1.3 °C 30.06in /  1017.8hPa SSE 4.0mph /  6.4km/h 8.0mph /  12.9km/h 52% 0.00in /  0mm
18:39 51.4 °F /  10.8 °C 33.9 °F /  1.1 °C 30.05in /  1017.5hPa South 4.0mph /  6.4km/h 8.0mph /  12.9km/h 51% 0.00in /  0mm
18:44 51.4 °F /  10.8 °C 34.3 °F /  1.3 °C 30.05in /  1017.5hPa SSW 4.0mph /  6.4km/h 7.0mph /  11.3km/h 52% 0.00in /  0mm
18:49 51.3 °F /  10.7 °C 33.8 °F /  1 °C 30.05in /  1017.5hPa South 4.0mph /  6.4km/h 9.0mph /  14.5km/h 51% 0.00in /  0mm
18:59 51.4 °F /  10.8 °C 33.9 °F /  1.1 °C 30.04in /  1017.2hPa South 4.0mph /  6.4km/h 8.0mph /  12.9km/h 51% 0.00in /  0mm
19:04 51.5 °F /  10.8 °C 34.0 °F /  1.1 °C 30.04in /  1017.2hPa South 3.0mph /  4.8km/h 7.0mph /  11.3km/h 51% 0.00in /  0mm
19:09 51.4 °F /  10.8 °C 33.9 °F /  1.1 °C 30.04in /  1017.2hPa South 4.0mph /  6.4km/h 7.0mph /  11.3km/h 51% 0.00in /  0mm
19:14 51.4 °F /  10.8 °C 33.9 °F /  1.1 °C 30.04in /  1017.2hPa SSE 6.0mph /  9.7km/h 8.0mph /  12.9km/h 51% 0.00in /  0mm
19:19 51.3 °F /  10.7 °C 34.3 °F /  1.3 °C 30.03in /  1016.8hPa South 3.0mph /  4.8km/h 8.0mph /  12.9km/h 52% 0.00in /  0mm
19:24 51.3 °F /  10.7 °C 33.8 °F /  1 °C 30.02in /  1016.5hPa SSE 3.0mph /  4.8km/h 7.0mph /  11.3km/h 51% 0.00in /  0mm
19:29 51.4 °F /  10.8 °C 33.9 °F /  1.1 °C 30.02in /  1016.5hPa South 2.0mph /  3.2km/h 8.0mph /  12.9km/h 51% 0.00in /  0mm
19:34 51.4 °F /  10.8 °C 33.9 °F /  1.1 °C 30.01in /  1016.1hPa South 6.0mph /  9.7km/h 8.0mph /  12.9km/h 51% 0.00in /  0mm
19:39 51.4 °F /  10.8 °C 33.9 °F /  1.1 °C 30.01in /  1016.1hPa South 5.0mph /  8km/h 9.0mph /  14.5km/h 51% 0.00in /  0mm
19:44 51.4 °F /  10.8 °C 33.9 °F /  1.1 °C 30.01in /  1016.1hPa SSE 6.0mph /  9.7km/h 8.0mph /  12.9km/h 51% 0.00in /  0mm
19:49 51.5 °F /  10.8 °C 34.0 °F /  1.1 °C 30.01in /  1016.1hPa SSE 5.0mph /  8km/h 9.0mph /  14.5km/h 51% 0.00in /  0mm
19:54 51.6 °F /  10.9 °C 33.6 °F /  0.9 °C 30.01in /  1016.1hPa South 6.0mph /  9.7km/h 11.0mph /  17.7km/h 50% 0.00in /  0mm
19:59 51.6 °F /  10.9 °C 34.0 °F /  1.1 °C 30.01in /  1016.1hPa South 5.0mph /  8km/h 11.0mph /  17.7km/h 51% 0.00in /  0mm
20:04 51.5 °F /  10.8 °C 34.0 °F /  1.1 °C 30.01in /  1016.1hPa SSE 8.0mph /  12.9km/h 9.0mph /  14.5km/h 51% 0.00in /  0mm
20:09 51.5 °F /  10.8 °C 34.0 °F /  1.1 °C 30.00in /  1015.8hPa South 7.0mph /  11.3km/h 11.0mph /  17.7km/h 51% 0.00in /  0mm
20:14 51.5 °F /  10.8 °C 34.0 °F /  1.1 °C 29.99in /  1015.5hPa SSW 7.0mph /  11.3km/h 9.0mph /  14.5km/h 51% 0.00in /  0mm
20:19 51.5 °F /  10.8 °C 34.0 °F /  1.1 °C 29.99in /  1015.5hPa SSE 5.0mph /  8km/h 12.0mph /  19.3km/h 51% 0.00in /  0mm
20:24 51.5 °F /  10.8 °C 34.0 °F /  1.1 °C 29.99in /  1015.5hPa SSE 6.0mph /  9.7km/h 12.0mph /  19.3km/h 51% 0.00in /  0mm
20:29 51.5 °F /  10.8 °C 34.0 °F /  1.1 °C 29.99in /  1015.5hPa South 6.0mph /  9.7km/h 15.0mph /  24.1km/h 51% 0.00in /  0mm
20:34 51.5 °F /  10.8 °C 34.0 °F /  1.1 °C 29.98in /  1015.1hPa South 6.0mph /  9.7km/h 15.0mph /  24.1km/h 51% 0.00in /  0mm
20:39 51.5 °F /  10.8 °C 34.0 °F /  1.1 °C 29.98in /  1015.1hPa SSE 8.0mph /  12.9km/h 12.0mph /  19.3km/h 51% 0.00in /  0mm
20:44 51.5 °F /  10.8 °C 34.0 °F /  1.1 °C 29.98in /  1015.1hPa South 11.0mph /  17.7km/h 13.0mph /  20.9km/h 51% 0.00in /  0mm
20:49 51.6 °F /  10.9 °C 34.0 °F /  1.1 °C 29.97in /  1014.8hPa SSE 7.0mph /  11.3km/h 13.0mph /  20.9km/h 51% 0.00in /  0mm
20:54 51.5 °F /  10.8 °C 34.0 °F /  1.1 °C 29.97in /  1014.8hPa SSE 6.0mph /  9.7km/h 13.0mph /  20.9km/h 51% 0.00in /  0mm
20:59 51.5 °F /  10.8 °C 34.4 °F /  1.3 °C 29.97in /  1014.8hPa SSE 5.0mph /  8km/h 10.0mph /  16.1km/h 52% 0.00in /  0mm
21:09 51.3 °F /  10.7 °C 34.3 °F /  1.3 °C 29.97in /  1014.8hPa South 5.0mph /  8km/h 10.0mph /  16.1km/h 52% 0.00in /  0mm
21:14 51.2 °F /  10.7 °C 34.2 °F /  1.2 °C 29.96in /  1014.4hPa South 3.0mph /  4.8km/h 7.0mph /  11.3km/h 52% 0.00in /  0mm
21:19 51.2 °F /  10.7 °C 34.2 °F /  1.2 °C 29.96in /  1014.4hPa SSE 4.0mph /  6.4km/h 9.0mph /  14.5km/h 52% 0.00in /  0mm
21:24 51.2 °F /  10.7 °C 34.2 °F /  1.2 °C 29.96in /  1014.4hPa SSE 4.0mph /  6.4km/h 9.0mph /  14.5km/h 52% 0.00in /  0mm
21:29 51.2 °F /  10.7 °C 34.2 °F /  1.2 °C 29.95in /  1014.1hPa SSE 5.0mph /  8km/h 10.0mph /  16.1km/h 52% 0.00in /  0mm
21:34 51.3 °F /  10.7 °C 34.3 °F /  1.3 °C 29.95in /  1014.1hPa SSE 4.0mph /  6.4km/h 11.0mph /  17.7km/h 52% 0.00in /  0mm
21:39 51.3 °F /  10.7 °C 34.3 °F /  1.3 °C 29.95in /  1014.1hPa SSE 3.0mph /  4.8km/h 9.0mph /  14.5km/h 52% 0.00in /  0mm
21:44 51.3 °F /  10.7 °C 34.3 °F /  1.3 °C 29.94in /  1013.8hPa SE 9.0mph /  14.5km/h 11.0mph /  17.7km/h 52% 0.00in /  0mm
21:49 51.5 °F /  10.8 °C 34.4 °F /  1.3 °C 29.94in /  1013.8hPa South 9.0mph /  14.5km/h 15.0mph /  24.1km/h 52% 0.00in /  0mm
21:54 51.5 °F /  10.8 °C 34.4 °F /  1.3 °C 29.94in /  1013.8hPa South 7.0mph /  11.3km/h 15.0mph /  24.1km/h 52% 0.00in /  0mm
21:59 51.5 °F /  10.8 °C 34.4 °F /  1.3 °C 29.93in /  1013.4hPa South 6.0mph /  9.7km/h 14.0mph /  22.5km/h 52% 0.00in /  0mm
22:04 51.4 °F /  10.8 °C 34.3 °F /  1.3 °C 29.93in /  1013.4hPa South 6.0mph /  9.7km/h 13.0mph /  20.9km/h 52% 0.00in /  0mm
22:09 51.4 °F /  10.8 °C 34.3 °F /  1.3 °C 29.93in /  1013.4hPa South 8.0mph /  12.9km/h 14.0mph /  22.5km/h 52% 0.00in /  0mm
22:14 51.5 °F /  10.8 °C 34.4 °F /  1.3 °C 29.93in /  1013.4hPa SSE 5.0mph /  8km/h 13.0mph /  20.9km/h 52% 0.00in /  0mm
22:19 51.4 °F /  10.8 °C 34.3 °F /  1.3 °C 29.93in /  1013.4hPa SW 3.0mph /  4.8km/h 10.0mph /  16.1km/h 52% 0.00in /  0mm
22:24 51.5 °F /  10.8 °C 34.4 °F /  1.3 °C 29.93in /  1013.4hPa South 6.0mph /  9.7km/h 13.0mph /  20.9km/h 52% 0.00in /  0mm
22:29 51.5 °F /  10.8 °C 34.4 °F /  1.3 °C 29.94in /  1013.8hPa South 6.0mph /  9.7km/h 13.0mph /  20.9km/h 52% 0.00in /  0mm
22:34 51.5 °F /  10.8 °C 34.4 °F /  1.3 °C 29.93in /  1013.4hPa SSE 6.0mph /  9.7km/h 11.0mph /  17.7km/h 52% 0.00in /  0mm
22:39 51.7 °F /  10.9 °C 34.1 °F /  1.2 °C 29.93in /  1013.4hPa South 4.0mph /  6.4km/h 10.0mph /  16.1km/h 51% 0.00in /  0mm
22:44 51.7 °F /  10.9 °C 34.1 °F /  1.2 °C 29.93in /  1013.4hPa South 5.0mph /  8km/h 12.0mph /  19.3km/h 51% 0.00in /  0mm
22:49 51.9 °F /  11.1 °C 34.3 °F /  1.3 °C 29.93in /  1013.4hPa SE 9.0mph /  14.5km/h 11.0mph /  17.7km/h 51% 0.00in /  0mm
22:54 52.0 °F /  11.1 °C 34.4 °F /  1.3 °C 29.93in /  1013.4hPa South 6.0mph /  9.7km/h 11.0mph /  17.7km/h 51% 0.00in /  0mm
22:59 51.9 °F /  11.1 °C 34.3 °F /  1.3 °C 29.93in /  1013.4hPa South 5.0mph /  8km/h 10.0mph /  16.1km/h 51% 0.00in /  0mm
23:04 51.6 °F /  10.9 °C 34.0 °F /  1.1 °C 29.94in /  1013.8hPa South 4.0mph /  6.4km/h 9.0mph /  14.5km/h 51% 0.00in /  0mm
23:14 51.8 °F /  11 °C 34.2 °F /  1.2 °C 29.94in /  1013.8hPa SSW 3.0mph /  4.8km/h 13.0mph /  20.9km/h 51% 0.00in /  0mm
23:19 52.0 °F /  11.1 °C 34.4 °F /  1.3 °C 29.94in /  1013.8hPa SSE 4.0mph /  6.4km/h 10.0mph /  16.1km/h 51% 0.00in /  0mm
23:24 52.1 °F /  11.2 °C 34.5 °F /  1.4 °C 29.93in /  1013.4hPa South 7.0mph /  11.3km/h 17.0mph /  27.4km/h 51% 0.00in /  0mm
23:29 52.3 °F /  11.3 °C 34.2 °F /  1.2 °C 29.93in /  1013.4hPa South 4.0mph /  6.4km/h 17.0mph /  27.4km/h 50% 0.00in /  0mm
23:34 52.3 °F /  11.3 °C 34.2 °F /  1.2 °C 29.93in /  1013.4hPa SSW 7.0mph /  11.3km/h 14.0mph /  22.5km/h 50% 0.00in /  0mm
23:39 52.5 °F /  11.4 °C 34.4 °F /  1.3 °C 29.92in /  1013.1hPa SSE 4.0mph /  6.4km/h 15.0mph /  24.1km/h 50% 0.00in /  0mm
23:44 52.5 °F /  11.4 °C 34.4 °F /  1.3 °C 29.92in /  1013.1hPa South 8.0mph /  12.9km/h 15.0mph /  24.1km/h 50% 0.00in /  0mm
23:49 52.5 °F /  11.4 °C 34.4 °F /  1.3 °C 29.92in /  1013.1hPa South 8.0mph /  12.9km/h 15.0mph /  24.1km/h 50% 0.00in /  0mm
23:54 52.5 °F /  11.4 °C 34.4 °F /  1.3 °C 29.92in /  1013.1hPa South 8.0mph /  12.9km/h 15.0mph /  24.1km/h 50% 0.00in /  0mm
23:59 52.5 °F /  11.4 °C 34.4 °F /  1.3 °C 29.91in /  1012.8hPa South 6.0mph /  9.7km/h 12.0mph /  19.3km/h 50% 0.00in /  0mm
Buffalo, New York, USA
Compliments of Weather Underground - 2.5 mb